Time;durP1;ratioP1;P1;durP2;ratioP2;P2;SDS_P1;SDS_P2;PMS_P1;PMS_P2;Temp;Humidity;BMP_temperature;BMP_pressure;BME280_temperature;BME280_humidity;BME280_pressure;Samples;Min_cycle;Max_cycle;Signal;HPM_P1;HPM_P2
2023/04/19 00:00:07;;;;;;;;;;;10.30;80.50;;;-151.14;100.00;62537.16;4972029;28;19982;-88
2023/04/19 00:02:35;;;;;;;;;;;10.30;80.40;;;-151.14;100.00;62537.16;4971897;28;19922;-86
2023/04/19 00:05:05;;;;;;;;;;;10.30;80.40;;;-151.14;100.00;62537.16;4971206;28;19922;-87
2023/04/19 00:07:33;;;;;;;;;;;10.30;80.60;;;-151.14;100.00;62537.16;4972885;28;19922;-87
2023/04/19 00:10:01;;;;;;;;;;;10.30;80.40;;;-151.14;100.00;62537.16;4971897;28;20091;-87
2023/04/19 00:12:29;;;;;;;;;;;10.30;80.40;;;-151.14;100.00;62537.16;4971704;28;19929;-87
2023/04/19 00:14:57;;;;;;;;;;;10.30;80.40;;;-151.14;100.00;62537.16;4955005;28;19929;-87
2023/04/19 00:17:26;;;;;;;;;;;10.30;80.40;;;-151.14;100.00;62537.16;4972881;28;20206;-88
2023/04/19 00:19:54;;;;;;;;;;;10.30;80.40;;;-151.14;100.00;62537.16;4955553;28;19922;-88
2023/04/19 00:22:23;;;;;;;;;;;10.30;80.30;;;-151.14;100.00;62537.16;4971478;28;20268;-88
2023/04/19 00:24:51;;;;;;;;;;;10.30;80.20;;;-151.14;100.00;62537.16;4954900;28;19929;-87
2023/04/19 00:27:19;;;;;;;;;;;10.30;80.10;;;-151.14;100.00;62537.16;4955488;28;19937;-88
2023/04/19 00:29:47;;;;;;;;;;;10.30;79.90;;;-151.14;100.00;62537.16;4971583;28;20091;-87
2023/04/19 00:32:16;;;;;;;;;;;10.30;79.80;;;-151.14;100.00;62537.16;4971479;28;20225;-88
2023/04/19 00:34:44;;;;;;;;;;;10.30;79.60;;;-151.14;100.00;62537.16;4954817;28;19922;-88
2023/04/19 00:37:12;;;;;;;;;;;10.30;79.30;;;-151.14;100.00;62537.16;4955329;28;20245;-89
2023/04/19 00:39:42;;;;;;;;;;;10.20;79.00;;;-151.14;100.00;62537.16;4971897;28;19922;-88
2023/04/19 00:42:10;;;;;;;;;;;10.30;79.00;;;-151.14;100.00;62537.16;4974974;28;19941;-87
2023/04/19 00:44:38;;;;;;;;;;;10.30;78.90;;;-151.14;100.00;62537.16;4958008;28;19922;-88
2023/04/19 00:47:06;;;;;;;;;;;10.30;79.10;;;-151.14;100.00;62537.16;4939438;29;19922;-88
2023/04/19 00:49:34;;;;;;;;;;;10.20;79.00;;;-151.14;100.00;62537.16;4955567;29;19929;-88
2023/04/19 00:52:02;;;;;;;;;;;10.20;78.80;;;-151.14;100.00;62537.16;4939461;29;19923;-88
2023/04/19 00:54:30;;;;;;;;;;;10.20;78.80;;;-151.14;100.00;62537.16;4954879;29;19927;-87
2023/04/19 00:57:00;;;;;;;;;;;10.20;78.50;;;-151.14;100.00;62537.16;4939554;29;20224;-87
2023/04/19 00:59:28;;;;;;;;;;;10.20;78.50;;;-151.14;100.00;62537.16;4955318;29;19928;-87
2023/04/19 01:01:57;;;;;;;;;;;10.20;78.60;;;-151.14;100.00;62537.16;4939520;29;19929;-88
2023/04/19 01:04:25;;;;;;;;;;;10.20;78.70;;;-151.14;100.00;62537.16;4938690;29;20209;-88
2023/04/19 01:06:53;;;;;;;;;;;10.20;78.70;;;-151.14;100.00;62537.16;4939420;29;19929;-87
2023/04/19 01:09:21;;;;;;;;;;;10.20;78.90;;;-151.14;100.00;62537.16;4955160;29;19923;-87
2023/04/19 01:11:49;;;;;;;;;;;10.20;78.80;;;-151.14;100.00;62537.16;4939204;29;19930;-87
2023/04/19 01:14:18;;;;;;;;;;;10.20;78.70;;;-151.14;100.00;62537.16;4954653;29;20206;-88
2023/04/19 01:16:47;;;;;;;;;;;10.20;78.80;;;-151.14;100.00;62537.16;4955278;29;19929;-87
2023/04/19 01:19:17;;;;;;;;;;;10.20;78.70;;;-151.14;100.00;62537.16;4939086;29;19929;-87
2023/04/19 01:21:45;;;;;;;;;;;10.20;78.60;;;-151.14;100.00;62537.16;4939272;29;19923;-87
2023/04/19 01:24:14;;;;;;;;;;;10.20;78.60;;;-151.14;100.00;62537.16;4954485;29;19922;-87
2023/04/19 01:26:42;;;;;;;;;;;10.30;78.60;;;-151.14;100.00;62537.16;4939148;29;19922;-88
2023/04/19 01:29:10;;;;;;;;;;;10.20;78.60;;;-151.14;100.00;62537.16;4955263;29;19923;-87
2023/04/19 01:31:39;;;;;;;;;;;10.20;78.50;;;-151.14;100.00;62537.16;4954916;29;20214;-86
2023/04/19 01:34:07;;;;;;;;;;;10.20;78.40;;;-151.14;100.00;62537.16;4938125;29;19929;-87
2023/04/19 01:36:35;;;;;;;;;;;10.20;78.40;;;-151.14;100.00;62537.16;4954903;29;19944;-87
2023/04/19 01:39:03;;;;;;;;;;;10.20;78.60;;;-151.14;100.00;62537.16;4954918;29;19929;-87
2023/04/19 01:41:32;;;;;;;;;;;10.20;78.80;;;-151.14;100.00;62537.16;4954971;28;19923;-86
2023/04/19 01:44:01;;;;;;;;;;;10.20;78.80;;;-151.14;100.00;62537.16;4954229;29;19944;-88
2023/04/19 01:46:29;;;;;;;;;;;10.20;78.80;;;-151.14;100.00;62537.16;4938857;29;19922;-87
2023/04/19 01:48:57;;;;;;;;;;;10.20;78.80;;;-151.14;100.00;62537.16;4938683;29;19922;-87
2023/04/19 01:51:25;;;;;;;;;;;10.20;78.70;;;-151.14;100.00;62537.16;4959043;28;20091;-87
2023/04/19 01:53:53;;;;;;;;;;;10.20;78.80;;;-151.14;100.00;62537.16;4973564;28;19922;-87
2023/04/19 01:56:21;;;;;;;;;;;10.20;78.80;;;-151.14;100.00;62537.16;4957216;28;19922;-87
2023/04/19 01:58:51;;;;;;;;;;;10.20;78.90;;;-151.14;100.00;62537.16;4957585;28;19922;-87
2023/04/19 02:01:19;;;;;;;;;;;10.20;78.90;;;-151.14;100.00;62537.16;4957761;28;20206;-87
2023/04/19 02:03:47;;;;;;;;;;;10.20;78.80;;;-151.14;100.00;62537.16;4957557;28;19929;-87
2023/04/19 02:06:16;;;;;;;;;;;10.20;78.70;;;-151.14;100.00;62537.16;4957134;28;20122;-87
2023/04/19 02:08:44;;;;;;;;;;;10.20;78.90;;;-151.14;100.00;62537.16;4957419;28;19937;-87
2023/04/19 02:11:13;;;;;;;;;;;10.20;78.80;;;-151.14;100.00;62537.16;4957445;28;20120;-88
2023/04/19 02:13:41;;;;;;;;;;;10.20;78.90;;;-151.14;100.00;62537.16;4957325;28;19929;-87
2023/04/19 02:16:11;;;;;;;;;;;10.20;78.90;;;-151.14;100.00;62537.16;4972981;28;19926;-87
2023/04/19 02:18:40;;;;;;;;;;;10.20;78.80;;;-151.14;100.00;62537.16;4974546;28;19928;-87
2023/04/19 02:21:08;;;;;;;;;;;10.20;78.90;;;-151.14;100.00;62537.16;4973586;28;20214;-87
2023/04/19 02:23:37;;;;;;;;;;;10.20;79.00;;;-151.14;100.00;62537.16;4957175;28;19922;-87
2023/04/19 02:26:05;;;;;;;;;;;10.20;79.00;;;-151.14;100.00;62537.16;4956714;28;19928;-87
2023/04/19 02:28:33;;;;;;;;;;;10.20;79.00;;;-151.14;100.00;62537.16;4973068;28;19929;-86
2023/04/19 02:31:04;;;;;;;;;;;10.20;79.20;;;-151.14;100.00;62537.16;4957288;28;20121;-87
2023/04/19 02:33:34;;;;;;;;;;;10.20;79.20;;;-151.14;100.00;62537.16;4973392;28;19928;-87
2023/04/19 02:36:02;;;;;;;;;;;10.20;79.20;;;-151.14;100.00;62537.16;4972667;28;19922;-87
2023/04/19 02:38:30;;;;;;;;;;;10.20;79.20;;;-151.14;100.00;62537.16;4956956;28;19922;-87
2023/04/19 02:40:59;;;;;;;;;;;10.20;79.20;;;-151.14;100.00;62537.16;4973187;28;19927;-88
2023/04/19 02:43:27;;;;;;;;;;;10.20;79.20;;;-151.14;100.00;62537.16;4974217;28;19922;-87
2023/04/19 02:45:55;;;;;;;;;;;10.20;79.20;;;-151.14;100.00;62537.16;4956450;28;20118;-87
2023/04/19 02:48:23;;;;;;;;;;;10.20;79.20;;;-151.14;100.00;62537.16;4956790;28;19922;-87
2023/04/19 02:50:53;;;;;;;;;;;10.20;79.20;;;-151.14;100.00;62537.16;4956545;28;19922;-87
2023/04/19 02:53:21;;;;;;;;;;;10.20;79.10;;;-151.14;100.00;62537.16;4956683;28;19929;-86
2023/04/19 02:55:50;;;;;;;;;;;10.20;79.20;;;-151.14;100.00;62537.16;4977607;23;19922;-82
2023/04/19 02:58:21;;;;;;;;;;;10.20;79.10;;;-151.14;100.00;62537.16;4989048;28;20120;-82
2023/04/19 03:01:03;;;;;;;;;;;10.20;79.00;;;-151.14;100.00;62537.16;4987996;28;19930;-82
2023/04/19 03:03:31;;;;;;;;;;;10.20;78.90;;;-151.14;100.00;62537.16;4978584;28;19929;-82
2023/04/19 03:06:00;;;;;;;;;;;10.20;78.90;;;-151.14;100.00;62537.16;4982102;28;19922;-83
2023/04/19 03:08:29;;;;;;;;;;;10.20;78.90;;;-151.14;100.00;62537.16;4992092;28;19922;-83
2023/04/19 03:10:58;;;;;;;;;;;10.20;79.00;;;-151.14;100.00;62537.16;4991905;28;19928;-83
2023/04/19 03:13:26;;;;;;;;;;;10.20;79.20;;;-151.14;100.00;62537.16;4991976;28;19922;-83
2023/04/19 03:15:54;;;;;;;;;;;10.20;79.20;;;-151.14;100.00;62537.16;5007614;28;19928;-82
2023/04/19 03:18:24;;;;;;;;;;;10.20;79.30;;;-151.14;100.00;62537.16;4992098;28;19922;-82
2023/04/19 03:20:54;;;;;;;;;;;10.20;79.20;;;-151.14;100.00;62537.16;4992244;28;20239;-82
2023/04/19 03:23:24;;;;;;;;;;;10.20;79.00;;;-151.14;100.00;62537.16;4975886;28;19946;-83
2023/04/19 03:25:52;;;;;;;;;;;10.20;79.20;;;-151.14;100.00;62537.16;4991010;28;19922;-83
2023/04/19 03:28:27;;;;;;;;;;;10.20;79.40;;;-151.14;100.00;62537.16;4975704;28;20213;-82
2023/04/19 03:31:24;;;;;;;;;;;10.20;79.40;;;-151.14;100.00;62537.16;4965518;28;20213;-83
2023/04/19 03:33:54;;;;;;;;;;;10.20;79.30;;;-151.14;100.00;62537.16;4956146;28;19922;-83
2023/04/19 03:36:27;;;;;;;;;;;10.20;79.30;;;-151.14;100.00;62537.16;4955911;28;19922;-82
2023/04/19 03:38:57;;;;;;;;;;;10.20;79.30;;;-151.14;100.00;62537.16;4956263;28;19922;-82
2023/04/19 03:41:25;;;;;;;;;;;10.20;79.30;;;-151.14;100.00;62537.16;4972185;28;19928;-83
2023/04/19 03:44:10;;;;;;;;;;;10.20;79.30;;;-151.14;100.00;62537.16;4955563;28;19946;-83
2023/04/19 03:46:39;;;;;;;;;;;10.20;79.40;;;-151.14;100.00;62537.16;4956210;28;19930;-83
2023/04/19 03:49:08;;;;;;;;;;;10.20;79.40;;;-151.14;100.00;62537.16;4972083;28;19923;-83
2023/04/19 03:51:36;;;;;;;;;;;10.20;79.30;;;-151.14;100.00;62537.16;4972248;28;19922;-83
2023/04/19 03:54:06;;;;;;;;;;;10.20;79.30;;;-151.14;100.00;62537.16;4987624;28;19922;-83
2023/04/19 03:56:34;;;;;;;;;;;10.20;79.40;;;-151.14;100.00;62537.16;4955839;28;19923;-82
2023/04/19 03:59:02;;;;;;;;;;;10.20;79.50;;;-151.14;100.00;62537.16;4972150;28;20121;-83
2023/04/19 04:01:33;;;;;;;;;;;10.20;79.30;;;-151.14;100.00;62537.16;4972072;28;19922;-83
2023/04/19 04:04:03;;;;;;;;;;;10.20;79.30;;;-151.14;100.00;62537.16;4977342;28;19929;-83
2023/04/19 04:06:31;;;;;;;;;;;10.20;79.50;;;-151.14;100.00;62537.16;4955589;28;20209;-83
2023/04/19 04:08:59;;;;;;;;;;;10.20;79.50;;;-151.14;100.00;62537.16;4955783;28;19922;-83
2023/04/19 04:11:29;;;;;;;;;;;10.20;79.60;;;-151.14;100.00;62537.16;4955754;28;19922;-83
2023/04/19 04:13:58;;;;;;;;;;;10.20;79.50;;;-151.14;100.00;62537.16;4987706;28;19922;-83
2023/04/19 04:16:32;;;;;;;;;;;10.20;79.40;;;-151.14;100.00;62537.16;4955221;28;19928;-83
2023/04/19 04:19:00;;;;;;;;;;;10.20;79.50;;;-151.14;100.00;62537.16;4971822;28;19923;-83
2023/04/19 04:21:42;;;;;;;;;;;10.20;79.50;;;-151.14;100.00;62537.16;4987665;28;19931;-83
2023/04/19 04:24:11;;;;;;;;;;;10.20;79.50;;;-151.14;100.00;62537.16;4955125;28;19929;-83
2023/04/19 04:27:02;;;;;;;;;;;10.20;79.30;;;-151.14;100.00;62537.16;4955665;28;19922;-83
2023/04/19 04:29:33;;;;;;;;;;;10.20;79.50;;;-151.14;100.00;62537.16;4987862;28;19922;-83
2023/04/19 04:32:03;;;;;;;;;;;10.20;79.30;;;-151.14;100.00;62537.16;4971496;28;19922;-82
2023/04/19 04:34:38;;;;;;;;;;;10.20;79.40;;;-151.14;100.00;62537.16;4987112;28;19998;-83
2023/04/19 04:37:12;;;;;;;;;;;10.20;79.60;;;-151.14;100.00;62537.16;4955519;28;19922;-83
2023/04/19 04:39:41;;;;;;;;;;;10.20;79.40;;;-151.14;100.00;62537.16;4987589;28;19922;-83
2023/04/19 04:42:16;;;;;;;;;;;10.20;79.40;;;-151.14;100.00;62537.16;4987541;28;19922;-82
2023/04/19 04:44:46;;;;;;;;;;;10.20;79.50;;;-151.14;100.00;62537.16;4954898;28;19922;-82
2023/04/19 04:47:14;;;;;;;;;;;10.20;79.60;;;-151.14;100.00;62537.16;4987383;28;20132;-83
2023/04/19 04:49:49;;;;;;;;;;;10.30;79.70;;;-151.14;100.00;62537.16;4971544;28;20090;-83
2023/04/19 04:52:17;;;;;;;;;;;10.30;79.70;;;-151.14;100.00;62537.16;4971477;28;19929;-83
2023/04/19 04:54:57;;;;;;;;;;;10.30;79.80;;;-151.14;100.00;62537.16;4955184;28;19929;-83
2023/04/19 04:57:33;;;;;;;;;;;10.30;79.50;;;-151.14;100.00;62537.16;4994143;28;20143;-83
2023/04/19 05:00:04;;;;;;;;;;;10.30;79.60;;;-151.14;100.00;62537.16;4994020;28;19928;-83
2023/04/19 05:02:37;;;;;;;;;;;10.30;80.00;;;-151.14;100.00;62537.16;5026633;28;19921;-83
2023/04/19 05:05:06;;;;;;;;;;;10.30;80.30;;;-151.14;100.00;62537.16;5009374;28;19928;-83
2023/04/19 05:07:34;;;;;;;;;;;10.30;79.60;;;-151.14;100.00;62537.16;5009945;28;19922;-83
2023/04/19 05:10:03;;;;;;;;;;;10.30;79.70;;;-151.14;100.00;62537.16;4977608;28;20136;-83
2023/04/19 05:12:42;;;;;;;;;;;10.40;79.90;;;-151.14;100.00;62537.16;4993856;28;19922;-83
2023/04/19 05:15:11;;;;;;;;;;;10.40;80.10;;;-151.14;100.00;62537.16;5009253;28;19980;-83
2023/04/19 05:17:42;;;;;;;;;;;10.40;80.00;;;-151.14;100.00;62537.16;5009867;28;20116;-83
2023/04/19 05:20:11;;;;;;;;;;;10.30;79.90;;;-151.14;100.00;62537.16;4977512;28;19928;-84
2023/04/19 05:22:39;;;;;;;;;;;10.30;80.30;;;-151.14;100.00;62537.16;5009792;28;19929;-83
2023/04/19 05:25:10;;;;;;;;;;;10.40;80.30;;;-151.14;100.00;62537.16;4976787;28;19928;-83
2023/04/19 05:27:39;;;;;;;;;;;10.30;80.10;;;-151.14;100.00;62537.16;4995391;28;19928;-83
2023/04/19 05:30:09;;;;;;;;;;;10.30;80.10;;;-151.14;100.00;62537.16;4996699;28;19921;-83
2023/04/19 05:32:42;;;;;;;;;;;10.30;79.90;;;-151.14;100.00;62537.16;4980688;28;20165;-83
2023/04/19 05:35:12;;;;;;;;;;;10.40;80.50;;;-151.14;100.00;62537.16;5012454;28;19928;-83
2023/04/19 05:37:40;;;;;;;;;;;10.30;80.40;;;-151.14;100.00;62537.16;4996736;28;19944;-84
2023/04/19 05:40:09;;;;;;;;;;;10.30;80.50;;;-151.14;100.00;62537.16;5013073;28;19921;-83
2023/04/19 05:42:38;;;;;;;;;;;10.30;80.60;;;-151.14;100.00;62537.16;4996506;28;19922;-83
2023/04/19 05:45:09;;;;;;;;;;;10.30;80.50;;;-151.14;100.00;62537.16;4995865;28;20243;-83
2023/04/19 05:47:37;;;;;;;;;;;10.30;80.30;;;-151.14;100.00;62537.16;4996681;28;19928;-83
2023/04/19 05:50:11;;;;;;;;;;;10.40;80.30;;;-151.14;100.00;62537.16;5012847;28;19922;-83
2023/04/19 05:52:48;;;;;;;;;;;10.40;80.40;;;-151.14;100.00;62537.16;4980490;28;19921;-83
2023/04/19 05:55:16;;;;;;;;;;;10.40;80.30;;;-151.14;100.00;62537.16;4996149;28;19930;-83
2023/04/19 05:57:46;;;;;;;;;;;10.40;80.30;;;-151.14;100.00;62537.16;4996653;28;19935;-83
2023/04/19 06:00:17;;;;;;;;;;;10.40;80.30;;;-151.14;100.00;62537.16;5012613;28;20213;-83
2023/04/19 06:02:54;;;;;;;;;;;10.40;80.30;;;-151.14;100.00;62537.16;4980288;28;20227;-83
2023/04/19 06:05:23;;;;;;;;;;;10.40;80.30;;;-151.14;100.00;62537.16;5011892;28;19922;-83
2023/04/19 06:07:55;;;;;;;;;;;10.40;80.30;;;-151.14;100.00;62537.16;5028908;28;19928;-83
2023/04/19 06:10:23;;;;;;;;;;;10.40;80.40;;;-151.14;100.00;62537.16;5029005;28;19922;-83
2023/04/19 06:12:51;;;;;;;;;;;10.40;80.40;;;-151.14;100.00;62537.16;4979804;28;19929;-83
2023/04/19 06:15:21;;;;;;;;;;;10.40;80.40;;;-151.14;100.00;62537.16;4979168;28;20425;-83
2023/04/19 06:17:49;;;;;;;;;;;10.50;80.50;;;-151.14;100.00;62537.16;5028785;28;19931;-83
2023/04/19 06:20:18;;;;;;;;;;;10.40;81.20;;;-151.14;100.00;62537.16;5013569;28;19944;-83
2023/04/19 06:22:46;;;;;;;;;;;10.40;80.30;;;-151.14;100.00;62537.16;5012214;28;19928;-83
2023/04/19 06:25:14;;;;;;;;;;;10.40;80.30;;;-151.14;100.00;62537.16;5012770;28;19936;-83
2023/04/19 06:27:42;;;;;;;;;;;10.40;80.30;;;-151.14;100.00;62537.16;5012192;28;19928;-82
2023/04/19 06:30:11;;;;;;;;;;;10.40;80.30;;;-151.14;100.00;62537.16;4996001;28;19925;-83
2023/04/19 06:32:41;;;;;;;;;;;10.40;80.30;;;-151.14;100.00;62537.16;5028605;28;20094;-82
2023/04/19 06:35:09;;;;;;;;;;;10.40;80.20;;;-151.14;100.00;62537.16;5012504;28;19921;-83
2023/04/19 06:37:37;;;;;;;;;;;10.40;80.30;;;-151.14;100.00;62537.16;5028071;28;19922;-83
2023/04/19 06:40:07;;;;;;;;;;;10.40;80.30;;;18.08;100.00;62537.16;5012187;28;19928;-82
2023/04/19 06:42:35;;;;;;;;;;;10.40;80.20;;;-151.14;100.00;62537.16;5012291;28;19928;-83
2023/04/19 06:45:04;;;;;;;;;;;10.40;80.30;;;-151.14;100.00;62537.16;4995230;28;19937;-83
2023/04/19 06:47:33;;;;;;;;;;;10.50;80.30;;;-151.14;100.00;62537.16;5011995;28;19922;-83
2023/04/19 06:50:03;;;;;;;;;;;10.40;80.20;;;-151.14;100.00;62537.16;5013201;28;19922;-82
2023/04/19 06:52:31;;;;;;;;;;;10.40;80.20;;;-151.14;100.00;62537.16;5000356;28;19922;-82
2023/04/19 06:54:59;;;;;;;;;;;10.40;80.20;;;-151.14;100.00;62537.16;4995040;28;19944;-83
2023/04/19 06:57:27;;;;;;;;;;;10.50;80.40;;;-151.14;100.00;62537.16;4995269;28;19928;-82
2023/04/19 06:59:55;;;;;;;;;;;10.40;80.30;;;-151.14;100.00;62537.16;5011802;28;19928;-82
2023/04/19 07:02:23;;;;;;;;;;;10.50;80.40;;;-151.14;100.00;62537.16;4995331;28;20120;-83
2023/04/19 07:04:51;;;;;;;;;;;10.50;80.30;;;-151.14;100.00;62537.16;4994860;28;19928;-83
2023/04/19 07:07:21;;;;;;;;;;;10.50;80.30;;;-151.14;100.00;62537.16;4979039;28;20224;-83
2023/04/19 07:09:49;;;;;;;;;;;10.40;80.20;;;-151.14;100.00;62537.16;4979328;28;19921;-83
2023/04/19 07:12:17;;;;;;;;;;;10.50;80.30;;;-151.14;100.00;62537.16;4978877;28;19928;-83
2023/04/19 07:14:45;;;;;;;;;;;10.50;80.30;;;-151.14;100.00;62537.16;5010803;28;20235;-83
2023/04/19 07:17:13;;;;;;;;;;;10.50;80.30;;;-151.14;100.00;62537.16;4979021;28;19921;-83
2023/04/19 07:19:41;;;;;;;;;;;10.50;80.30;;;-151.14;100.00;62537.16;4995296;28;19921;-83
2023/04/19 07:22:09;;;;;;;;;;;10.50;80.30;;;-151.14;100.00;62537.16;4995372;28;19975;-83
2023/04/19 07:24:40;;;;;;;;;;;10.50;80.30;;;-151.14;100.00;62537.16;5010842;28;19921;-83
2023/04/19 07:27:08;;;;;;;;;;;10.50;80.30;;;-151.14;100.00;62537.16;4978736;28;20209;-83
2023/04/19 07:29:36;;;;;;;;;;;10.50;80.30;;;-151.14;100.00;62537.16;4978941;28;19921;-83
2023/04/19 07:32:05;;;;;;;;;;;10.50;80.30;;;-151.14;100.00;62537.16;5011364;28;19921;-83
2023/04/19 07:34:33;;;;;;;;;;;10.50;80.30;;;-151.14;100.00;62537.16;4977955;28;19927;-83
2023/04/19 07:37:01;;;;;;;;;;;10.50;80.30;;;-151.14;100.00;62537.16;4972179;28;19929;-83
2023/04/19 07:39:29;;;;;;;;;;;10.50;80.20;;;18.08;100.00;62537.16;4956225;28;19930;-83
2023/04/19 07:42:00;;;;;;;;;;;10.60;80.20;;;-151.14;100.00;62537.16;4973401;28;20205;-83
2023/04/19 07:44:28;;;;;;;;;;;10.60;80.10;;;-151.14;100.00;62537.16;4955453;28;19928;-83
2023/04/19 07:46:56;;;;;;;;;;;10.60;80.00;;;-151.14;100.00;62537.16;4972074;28;20095;-83
2023/04/19 07:49:24;;;;;;;;;;;10.60;79.90;;;-151.14;100.00;62537.16;4955303;28;20117;-83
2023/04/19 07:51:52;;;;;;;;;;;10.60;79.80;;;-151.14;100.00;62537.16;4956210;28;19922;-83
2023/04/19 07:54:20;;;;;;;;;;;10.60;79.80;;;-151.14;100.00;62537.16;4971453;28;19937;-83
2023/04/19 07:56:48;;;;;;;;;;;10.60;79.80;;;9.66;100.00;62537.16;4967597;28;19922;-83
2023/04/19 07:59:17;;;;;;;;;;;10.70;79.70;;;-151.14;100.00;62537.16;4988245;28;20118;-83
2023/04/19 08:01:45;;;;;;;;;;;10.80;79.60;;;-151.14;100.00;62537.16;4988199;28;19923;-83
2023/04/19 08:04:13;;;;;;;;;;;10.80;79.30;;;-151.14;100.00;62537.16;4987445;28;19922;-83
2023/04/19 08:06:41;;;;;;;;;;;10.90;79.20;;;-151.14;100.00;62537.16;4988134;28;19922;-83
2023/04/19 08:09:10;;;;;;;;;;;10.90;78.90;;;-151.14;100.00;62537.16;4972955;28;20236;-83
2023/04/19 08:11:38;;;;;;;;;;;11.00;78.60;;;-151.14;100.00;62537.16;4971762;28;19929;-83
2023/04/19 08:14:06;;;;;;;;;;;11.10;78.50;;;-151.14;100.00;62537.16;4972239;28;19923;-83
2023/04/19 08:16:35;;;;;;;;;;;11.10;78.20;;;-151.14;100.00;62537.16;4971638;28;19922;-83
2023/04/19 08:19:03;;;;;;;;;;;11.20;78.00;;;-151.14;100.00;62537.16;4987800;28;19922;-83
2023/04/19 08:21:31;;;;;;;;;;;11.20;77.90;;;-151.14;100.00;62537.16;4987809;28;20244;-83
2023/04/19 08:23:59;;;;;;;;;;;11.30;77.80;;;-151.14;100.00;62537.16;4971499;28;19944;-82
2023/04/19 08:26:27;;;;;;;;;;;11.30;77.60;;;-151.14;100.00;62537.16;4987559;28;19929;-83
2023/04/19 08:28:56;;;;;;;;;;;11.40;77.60;;;-151.14;100.00;62537.16;4971636;28;19922;-83
2023/04/19 08:31:23;;;;;;;;;;;11.30;77.40;;;-151.14;100.00;62537.16;4987758;28;19929;-82
2023/04/19 08:33:53;;;;;;;;;;;11.40;77.30;;;-151.14;100.00;62537.16;4984694;28;20287;-83
2023/04/19 08:36:21;;;;;;;;;;;11.40;77.20;;;-151.14;100.00;62537.16;4990151;28;19977;-83
2023/04/19 08:38:49;;;;;;;;;;;11.40;77.20;;;10.42;100.00;62537.16;4990974;28;20124;-83
2023/04/19 08:41:17;;;;;;;;;;;11.50;77.20;;;-151.14;100.00;62537.16;4974715;28;19922;-82
2023/04/19 08:43:45;;;;;;;;;;;11.50;77.10;;;-151.14;100.00;62537.16;4974679;28;19921;-83
2023/04/19 08:46:13;;;;;;;;;;;11.40;77.10;;;18.08;100.00;62537.16;4990122;28;19922;-83
2023/04/19 08:48:42;;;;;;;;;;;11.40;77.10;;;-151.14;100.00;62537.16;4974687;28;19922;-83
2023/04/19 08:51:12;;;;;;;;;;;11.40;77.30;;;-151.14;100.00;62537.16;4974436;28;19922;-83
2023/04/19 08:53:40;;;;;;;;;;;11.30;77.40;;;-151.14;100.00;62537.16;4974421;28;20217;-83
2023/04/19 08:56:09;;;;;;;;;;;11.30;77.50;;;-151.14;100.00;62537.16;4990140;28;19921;-84
2023/04/19 08:58:37;;;;;;;;;;;11.30;77.70;;;-151.14;100.00;62537.16;4974436;28;20213;-84
2023/04/19 09:01:07;;;;;;;;;;;11.20;77.90;;;-151.14;100.00;62537.16;4991822;28;19922;-83
2023/04/19 09:03:36;;;;;;;;;;;11.20;78.00;;;-151.14;100.00;62537.16;4993976;28;19922;-83
2023/04/19 09:06:04;;;;;;;;;;;11.20;78.20;;;-151.14;100.00;62537.16;4993287;28;20231;-84
2023/04/19 09:08:34;;;;;;;;;;;11.10;78.30;;;-151.14;100.00;62537.16;5010118;28;19922;-82
2023/04/19 09:11:02;;;;;;;;;;;11.10;78.40;;;-151.14;100.00;62537.16;4993941;28;20213;-84
2023/04/19 09:13:30;;;;;;;;;;;11.10;78.50;;;9.99;100.00;62537.16;4977706;28;19922;-83
2023/04/19 09:15:59;;;;;;;;;;;11.10;78.70;;;-151.14;100.00;62537.16;5009453;28;20113;-83
2023/04/19 09:18:27;;;;;;;;;;;11.10;78.70;;;-151.14;100.00;62537.16;4994592;28;19944;-84
2023/04/19 09:20:57;;;;;;;;;;;11.00;78.70;;;-151.14;100.00;62537.16;4994182;28;19922;-83
2023/04/19 09:23:25;;;;;;;;;;;11.00;78.80;;;9.93;100.00;62537.16;4994757;28;20202;-83
2023/04/19 09:25:56;;;;;;;;;;;11.00;78.80;;;-151.14;100.00;62537.16;4993394;28;19928;-84
2023/04/19 09:28:25;;;;;;;;;;;11.00;78.90;;;-151.14;100.00;62537.16;4993827;28;19921;-84
2023/04/19 09:30:53;;;;;;;;;;;11.00;79.00;;;9.90;100.00;62537.16;5009858;28;19952;-83
2023/04/19 09:33:33;;;;;;;;;;;11.00;79.10;;;9.88;100.00;62537.16;4993608;28;19922;-84
2023/04/19 09:36:01;;;;;;;;;;;11.00;79.20;;;-151.14;100.00;62537.16;4973392;28;19929;-83
2023/04/19 09:38:29;;;;;;;;;;;11.00;79.20;;;-151.14;100.00;62537.16;4974147;28;19922;-85
2023/04/19 09:41:09;;;;;;;;;;;11.00;79.20;;;-151.14;100.00;62537.16;4990448;28;19924;-84
2023/04/19 09:43:37;;;;;;;;;;;11.00;79.30;;;-151.14;100.00;62537.16;4958037;28;19922;-83
2023/04/19 09:46:05;;;;;;;;;;;10.90;79.30;;;-151.14;100.00;62537.16;4973470;28;20095;-84
2023/04/19 09:48:34;;;;;;;;;;;10.90;79.30;;;-151.14;100.00;62537.16;4990217;28;19922;-84
2023/04/19 09:51:02;;;;;;;;;;;10.90;79.30;;;-151.14;100.00;62537.16;4990058;28;19922;-84
2023/04/19 09:53:33;;;;;;;;;;;10.90;79.30;;;-151.14;100.00;62537.16;4974310;28;20202;-84
2023/04/19 09:56:01;;;;;;;;;;;10.90;79.30;;;-151.14;100.00;62537.16;4972652;28;19922;-84
2023/04/19 09:58:30;;;;;;;;;;;10.90;79.30;;;-151.14;100.00;62537.16;4990030;28;20122;-84
2023/04/19 10:00:58;;;;;;;;;;;10.90;79.30;;;9.88;100.00;62537.16;4989971;28;20117;-84
2023/04/19 10:03:26;;;;;;;;;;;10.90;79.30;;;-151.14;100.00;62537.16;4973837;28;19922;-84
2023/04/19 10:05:54;;;;;;;;;;;10.90;79.40;;;-151.14;100.00;62537.16;4989253;28;19922;-84
2023/04/19 10:08:22;;;;;;;;;;;11.00;79.30;;;-151.14;100.00;62537.16;4957689;28;19922;-84
2023/04/19 10:10:53;;;;;;;;;;;11.00;79.20;;;-151.14;100.00;62537.16;4973614;28;19922;-83
2023/04/19 10:13:22;;;;;;;;;;;11.00;79.20;;;-151.14;100.00;62537.16;4974087;28;19928;-83
2023/04/19 10:15:52;;;;;;;;;;;11.00;79.30;;;9.90;100.00;62537.16;4972885;28;19922;-84
2023/04/19 10:18:20;;;;;;;;;;;10.90;79.20;;;-151.14;100.00;62537.16;4989751;28;19922;-83
2023/04/19 10:20:50;;;;;;;;;;;11.00;79.30;;;9.89;100.00;62537.16;4973514;28;19922;-84
2023/04/19 10:23:18;;;;;;;;;;;10.90;79.30;;;-151.14;100.00;62537.16;4974624;28;19922;-83
2023/04/19 10:25:46;;;;;;;;;;;10.90;79.30;;;9.88;100.00;62537.16;4972812;28;19928;-84
2023/04/19 10:28:15;;;;;;;;;;;10.90;79.50;;;-151.14;100.00;62537.16;4973585;28;20098;-84
2023/04/19 10:30:55;;;;;;;;;;;10.90;79.50;;;-151.14;100.00;62537.16;4973426;28;19922;-84
2023/04/19 10:33:27;;;;;;;;;;;10.90;79.50;;;-151.14;100.00;62537.16;4973414;28;19930;-83
2023/04/19 10:35:58;;;;;;;;;;;10.90;79.50;;;9.84;100.00;62537.16;4973702;28;19922;-84
2023/04/19 10:38:37;;;;;;;;;;;10.90;79.50;;;9.83;100.00;62537.16;4973352;28;19928;-84
2023/04/19 10:41:10;;;;;;;;;;;10.90;79.50;;;9.81;100.00;62537.16;4989492;28;19922;-84
2023/04/19 10:43:38;;;;;;;;;;;10.90;79.60;;;9.81;100.00;62537.16;4989481;28;19923;-84
2023/04/19 10:46:09;;;;;;;;;;;10.90;79.60;;;-151.14;100.00;62537.16;4972652;28;19929;-84
2023/04/19 10:48:57;;;;;;;;;;;10.90;79.70;;;-151.14;100.00;62537.16;4989422;28;19928;-84
2023/04/19 10:51:27;;;;;;;;;;;10.90;79.60;;;-151.14;100.00;62537.16;4973087;28;19922;-84
2023/04/19 10:53:58;;;;;;;;;;;10.90;79.60;;;-151.14;100.00;62537.16;4973164;28;20113;-84
2023/04/19 10:57:10;;;;;;;;;;;10.90;79.60;;;-151.14;100.00;62537.16;4956400;28;19928;-83
2023/04/19 10:59:39;;;;;;;;;;;11.00;79.50;;;9.93;100.00;62537.16;4972924;28;19922;-83
2023/04/19 11:02:29;;;;;;;;;;;11.00;79.30;;;-151.14;100.00;62537.16;4956924;28;19927;-84
2023/04/19 11:05:01;;;;;;;;;;;11.00;79.30;;;9.91;100.00;62537.16;4988440;28;19929;-84